createdAt,value
2019-05-02T05:57:21.183Z,15.00
2019-05-02T06:02:22.381Z,14.63
2019-05-02T06:07:23.351Z,14.80
2019-05-02T06:12:26.056Z,14.10
2019-05-02T06:17:28.650Z,13.53
2019-05-02T06:22:29.772Z,14.50
2019-05-02T06:27:30.638Z,14.90
2019-05-02T06:32:31.635Z,14.77
2019-05-02T06:37:32.524Z,13.93
2019-05-02T06:42:34.629Z,16.33
2019-05-02T06:47:41.693Z,16.33
2019-05-02T06:52:39.057Z,16.43
2019-05-02T06:57:39.927Z,17.23
2019-05-02T07:02:40.942Z,17.23
2019-05-02T07:07:41.916Z,17.07
2019-05-02T07:12:46.127Z,15.10
2019-05-02T07:17:47.464Z,15.60
2019-05-02T07:22:48.823Z,14.43
2019-05-02T07:27:49.701Z,13.13
2019-05-02T07:32:51.024Z,12.40
2019-05-02T07:37:51.936Z,10.53
2019-05-02T07:42:52.814Z,9.33
2019-05-02T07:47:53.684Z,8.33
2019-05-02T07:52:54.567Z,4.90
2019-05-02T07:57:55.449Z,5.13
2019-05-02T08:02:57.994Z,5.47
2019-05-02T08:07:59.111Z,5.63
2019-05-02T08:12:59.989Z,6.50
2019-05-02T08:18:00.968Z,6.17
2019-05-02T08:23:01.943Z,7.40
2019-05-02T08:28:17.912Z,7.23
2019-05-02T08:33:19.742Z,7.23
2019-05-02T08:38:20.731Z,8.10
2019-05-02T08:43:22.044Z,8.10
2019-05-02T08:48:22.915Z,8.67
2019-05-02T08:53:23.779Z,8.47
2019-05-02T08:58:24.659Z,8.03
2019-05-02T09:03:25.557Z,8.03
2019-05-02T09:08:26.430Z,8.20
2019-05-02T09:13:29.450Z,7.70
2019-05-02T09:18:37.876Z,6.73
2019-05-02T09:23:36.858Z,7.43
2019-05-02T09:28:35.644Z,6.87
2019-05-02T09:33:36.987Z,7.33
2019-05-02T09:38:39.436Z,7.23
2019-05-02T09:43:40.310Z,7.27
2019-05-02T09:48:42.746Z,6.63
2019-05-02T09:53:44.731Z,8.20
2019-05-02T09:58:45.707Z,6.33
2019-05-02T10:03:46.805Z,6.73
2019-05-02T10:08:47.752Z,6.53
2019-05-02T10:13:48.658Z,8.00
2019-05-02T10:18:49.623Z,7.63
2019-05-02T10:23:51.821Z,6.87
2019-05-02T10:28:53.575Z,6.73
2019-05-02T10:33:54.535Z,6.60
2019-05-02T10:38:59.263Z,6.50
2019-05-02T10:43:59.605Z,6.43
2019-05-02T10:49:02.470Z,6.77
2019-05-02T10:54:05.151Z,6.60
2019-05-02T10:59:06.043Z,5.43
2019-05-02T11:04:08.808Z,4.07
2019-05-02T11:09:11.888Z,4.13
2019-05-02T11:14:14.763Z,4.43
2019-05-02T11:19:17.598Z,4.87
2019-05-02T11:24:18.523Z,3.90
2019-05-02T11:29:19.380Z,4.30
2019-05-02T11:34:22.078Z,5.07
2019-05-02T11:39:30.969Z,4.40
2019-05-02T11:44:25.956Z,3.73
2019-05-02T11:49:26.836Z,3.90
2019-05-02T11:54:27.932Z,4.07
2019-05-02T11:59:29.294Z,3.90
2019-05-02T12:04:32.444Z,2.93
2019-05-02T12:09:33.269Z,2.90
2019-05-02T12:14:36.388Z,3.20
2019-05-02T12:19:36.937Z,3.43
2019-05-02T12:24:40.794Z,3.53
2019-05-02T12:29:42.376Z,2.97
2019-05-02T12:34:43.481Z,3.03
2019-05-02T12:39:44.367Z,3.10
2019-05-02T12:44:45.240Z,3.10
2019-05-02T12:49:46.117Z,2.90
2019-05-02T12:54:46.987Z,3.47
2019-05-02T12:59:47.880Z,3.30
2019-05-02T13:04:48.960Z,3.33
2019-05-02T13:09:49.861Z,3.47
2019-05-02T13:14:52.862Z,3.60
2019-05-02T13:19:57.134Z,3.77
2019-05-02T13:24:58.791Z,3.83
2019-05-02T13:29:59.773Z,3.20
2019-05-02T13:35:02.761Z,3.00
2019-05-02T13:40:06.463Z,2.83
2019-05-02T13:45:12.854Z,3.30
2019-05-02T13:50:14.797Z,2.80
2019-05-02T13:55:17.875Z,3.40
2019-05-02T14:00:31.905Z,2.97
2019-05-02T14:05:33.031Z,2.80
2019-05-02T14:10:39.236Z,3.37
2019-05-02T14:15:39.635Z,3.57
2019-05-02T14:20:42.629Z,2.83
2019-05-02T14:25:45.388Z,2.93
2019-05-02T14:30:46.562Z,3.30
2019-05-02T14:35:47.431Z,2.90
2019-05-02T14:41:03.078Z,2.73
2019-05-02T14:46:04.462Z,3.43
2019-05-02T14:51:05.331Z,3.80
2019-05-02T14:56:12.499Z,3.00
2019-05-02T15:01:17.169Z,2.93
2019-05-02T15:06:16.581Z,3.77
2019-05-02T15:11:17.555Z,2.93
2019-05-02T15:16:20.063Z,3.10
2019-05-02T15:21:22.921Z,3.73
2019-05-02T15:26:26.214Z,3.37
2019-05-02T15:31:31.586Z,3.73
2019-05-02T15:36:32.398Z,3.50
2019-05-02T15:41:33.307Z,3.20
2019-05-02T15:46:34.353Z,4.10
2019-05-02T15:51:38.008Z,3.90
2019-05-02T15:56:54.014Z,3.27
2019-05-02T16:01:55.767Z,3.40
2019-05-02T16:07:00.501Z,3.73
2019-05-02T16:12:03.384Z,3.33
2019-05-02T16:17:04.604Z,3.30
2019-05-02T16:22:11.532Z,2.90
2019-05-02T16:27:16.433Z,3.47
2019-05-02T16:32:23.193Z,3.07
2019-05-02T16:37:24.323Z,3.63
2019-05-02T16:42:25.376Z,3.47
2019-05-02T16:47:26.253Z,3.20
2019-05-02T16:52:27.133Z,2.80
2019-05-02T16:57:28.008Z,3.17
2019-05-02T17:02:28.867Z,3.30
2019-05-02T17:07:48.416Z,3.60
2019-05-02T17:12:52.978Z,3.70
2019-05-02T17:17:54.217Z,2.97
2019-05-02T17:23:01.824Z,3.03
2019-05-02T17:28:02.444Z,3.17
2019-05-02T17:33:01.895Z,2.67
2019-05-02T17:38:03.316Z,2.73
2019-05-02T17:43:06.858Z,3.20
2019-05-02T17:48:15.275Z,3.03
2019-05-02T17:53:11.679Z,3.00
2019-05-02T17:58:16.053Z,3.50
2019-05-02T18:03:15.708Z,3.10
2019-05-02T18:08:16.740Z,3.40
2019-05-02T18:13:17.611Z,3.73
2019-05-02T18:18:18.487Z,3.67
2019-05-02T18:23:24.111Z,3.87
2019-05-02T18:28:26.127Z,3.60
2019-05-02T18:33:24.940Z,4.23
2019-05-02T18:38:25.826Z,3.80
2019-05-02T18:43:26.708Z,3.27
2019-05-02T18:48:27.581Z,3.90
2019-05-02T18:53:28.457Z,3.97
2019-05-02T18:58:29.437Z,4.10
2019-05-02T19:03:30.431Z,3.90
2019-05-02T19:08:45.191Z,3.37
2019-05-02T19:13:37.544Z,3.80
2019-05-02T19:18:39.988Z,3.63
2019-05-02T19:23:42.465Z,3.67
2019-05-02T19:28:57.527Z,4.03
2019-05-02T19:33:58.387Z,3.90
2019-05-02T19:39:07.821Z,3.93
2019-05-02T19:44:02.390Z,3.93
2019-05-02T19:49:06.842Z,3.53
2019-05-02T19:54:07.142Z,4.03
2019-05-02T19:59:08.139Z,3.93
2019-05-02T20:04:09.576Z,4.23
2019-05-02T20:09:12.034Z,3.67
2019-05-02T20:14:13.546Z,5.03
